Time;durP1;ratioP1;P1;durP2;ratioP2;P2;SDS_P1;SDS_P2;PMS_P1;PMS_P2;Temp;Humidity;BMP_temperature;BMP_pressure;BME280_temperature;BME280_humidity;BME280_pressure;Samples;Min_cycle;Max_cycle;Signal;HPM_P1;HPM_P2
2023/04/03 00:02:13;;;;;;;11.40;8.45;;;;;;;2.43;74.91;98939.75;5065027;28;20025;-71
2023/04/03 00:04:39;;;;;;;8.82;7.18;;;;;;;2.37;75.02;98944.19;5066211;28;20025;-71
2023/04/03 00:07:05;;;;;;;9.75;7.45;;;;;;;2.33;74.58;98943.81;5051801;28;21103;-71
2023/04/03 00:09:30;;;;;;;9.50;6.65;;;;;;;2.31;74.82;98943.22;5065167;28;20020;-70
2023/04/03 00:11:56;;;;;;;9.57;6.95;;;;;;;2.28;74.68;98951.00;5054248;28;20087;-71
2023/04/03 00:14:21;;;;;;;8.55;6.50;;;;;;;2.28;75.09;98945.56;5068809;28;20029;-72
2023/04/03 00:16:47;;;;;;;9.70;7.05;;;;;;;2.31;74.95;98945.94;5070087;28;20084;-70
2023/04/03 00:19:12;;;;;;;8.98;6.78;;;;;;;2.35;74.78;98943.59;5070218;28;20392;-71
2023/04/03 00:21:38;;;;;;;11.13;7.68;;;;;;;2.37;75.16;98944.19;5069326;28;20025;-70
2023/04/03 00:24:04;;;;;;;9.20;7.22;;;;;;;2.32;75.74;98942.16;5063247;28;20032;-70
2023/04/03 00:26:29;;;;;;;9.48;7.53;;;;;;;2.29;75.26;98949.94;5049866;28;20044;-71
2023/04/03 00:28:55;;;;;;;9.80;7.68;;;;;;;2.27;75.91;98943.94;5050190;28;20510;-71
2023/04/03 00:31:21;;;;;;;11.77;8.50;;;;;;;2.18;75.84;98938.03;5049925;28;20029;-71
2023/04/03 00:33:46;;;;;;;11.75;7.70;;;;;;;2.14;75.56;98940.34;5049722;28;20052;-71
2023/04/03 00:36:12;;;;;;;10.52;8.07;;;;;;;2.16;76.18;98946.34;5052340;28;20025;-71
2023/04/03 00:38:39;;;;;;;14.55;9.43;;;;;;;2.15;75.79;98943.88;5053394;28;20029;-71
2023/04/03 00:41:06;;;;;;;13.57;9.30;;;;;;;2.18;75.92;98948.84;5053223;28;20584;-71
2023/04/03 00:43:31;;;;;;;11.95;8.20;;;;;;;2.12;75.98;98942.44;5075647;28;20056;-71
2023/04/03 00:45:59;;;;;;;14.35;9.85;;;;;;;2.12;76.18;98949.75;5093826;28;20028;-71
2023/04/03 00:48:34;;;;;;;14.82;9.65;;;;;;;2.06;76.70;98951.47;5071454;28;20036;-71
2023/04/03 00:51:02;;;;;;;10.68;8.38;;;;;;;2.02;76.48;98940.28;5092976;28;20035;-71
2023/04/03 00:53:33;;;;;;;12.02;9.52;;;;;;;2.05;76.99;98939.84;5093391;28;20032;-70
2023/04/03 00:56:00;;;;;;;11.73;8.20;;;;;;;2.07;75.79;98943.16;5093514;28;20024;-71
2023/04/03 00:58:37;;;;;;;10.68;7.88;;;;;;;2.15;76.21;98941.19;5075255;28;20024;-71
2023/04/03 01:01:06;;;;;;;11.55;8.05;;;;;;;2.14;76.27;98937.63;5093149;28;20107;-71
2023/04/03 01:03:32;;;;;;;13.07;8.65;;;;;;;2.11;76.27;98943.50;5092503;28;20496;-70
2023/04/03 01:05:57;;;;;;;10.15;7.43;;;;;;;2.11;76.44;98942.69;5093353;28;20027;-70
2023/04/03 01:08:23;;;;;;;9.20;6.75;;;;;;;2.12;76.59;98949.75;5093056;28;20024;-71
2023/04/03 01:10:49;;;;;;;10.38;6.95;;;;;;;2.13;76.48;98946.00;5093170;28;20376;-71
2023/04/03 01:13:26;;;;;;;10.65;6.30;;;;;;;2.11;76.06;98951.63;5093162;28;20109;-71
2023/04/03 01:15:52;;;;;;;11.25;7.32;;;;;;;2.09;75.78;98948.31;5093129;28;20027;-71
2023/04/03 01:18:17;;;;;;;9.65;6.78;;;;;;;2.06;76.41;98946.91;5092826;28;20384;-70
2023/04/03 01:20:55;;;;;;;10.02;6.38;;;;;;;2.08;75.96;98958.31;5090642;28;20069;-70
2023/04/03 01:23:26;;;;;;;9.88;6.47;;;;;;;2.08;75.82;98952.06;5092705;28;20113;-71
2023/04/03 01:25:55;;;;;;;9.48;6.68;;;;;;;2.06;75.44;98951.47;5092838;28;20090;-71
2023/04/03 01:28:25;;;;;;;11.13;6.53;;;;;;;2.10;75.65;98954.56;5092773;28;20143;-71
2023/04/03 01:31:02;;;;;;;10.25;6.45;;;;;;;2.10;75.39;98951.84;5092474;28;20028;-71
2023/04/03 01:33:27;;;;;;;9.73;6.78;;;;;;;2.08;75.33;98957.47;5092627;28;20024;-71
2023/04/03 01:35:53;;;;;;;12.93;7.95;;;;;;;2.07;75.59;98964.78;5092728;28;20025;-71
2023/04/03 01:38:18;;;;;;;11.45;6.82;;;;;;;2.09;75.86;98961.84;5092241;28;20043;-71
2023/04/03 01:40:43;;;;;;;12.82;8.65;;;;;;;2.10;75.28;98968.09;5074474;28;20024;-71
2023/04/03 01:43:09;;;;;;;14.48;6.72;;;;;;;2.10;75.53;98968.09;5083262;28;20050;-71
2023/04/03 01:45:34;;;;;;;11.73;5.85;;;;;;;2.11;75.31;98970.56;5054552;28;20029;-71
2023/04/03 01:48:00;;;;;;;8.27;5.78;;;;;;;2.10;75.42;98970.81;5071999;28;20039;-71
2023/04/03 01:50:25;;;;;;;8.30;4.88;;;;;;;2.10;75.90;98966.19;5071987;28;20032;-70
2023/04/03 01:52:51;;;;;;;7.93;4.88;;;;;;;2.12;75.43;98968.69;5071655;28;20077;-71
2023/04/03 01:55:16;;;;;;;7.22;4.45;;;;;;;2.13;75.55;98973.06;5071574;28;20033;-71
2023/04/03 01:57:43;;;;;;;7.00;5.28;;;;;;;2.12;75.31;98969.50;5071802;28;20021;-71
2023/04/03 02:00:09;;;;;;;9.00;4.70;;;;;;;2.05;74.85;98977.72;5071731;28;20090;-70
2023/04/03 02:02:34;;;;;;;7.38;5.10;;;;;;;2.01;75.00;98971.09;5070875;28;20370;-71
2023/04/03 02:05:00;;;;;;;8.70;5.00;;;;;;;1.98;75.12;98979.69;5071188;28;20099;-71
2023/04/03 02:07:25;;;;;;;7.28;3.95;;;;;;;1.97;75.06;98979.91;5071759;28;20107;-71
2023/04/03 02:09:51;;;;;;;7.40;4.35;;;;;;;1.88;74.71;98987.50;5071887;28;20032;-71
2023/04/03 02:12:17;;;;;;;8.73;4.30;;;;;;;1.82;74.83;98985.72;5071664;28;20017;-70
2023/04/03 02:14:42;;;;;;;9.80;4.50;;;;;;;1.74;75.27;98978.72;5071231;28;20454;-71
2023/04/03 02:17:08;;;;;;;7.30;4.50;;;;;;;1.74;74.73;98984.13;5071193;28;20033;-70
2023/04/03 02:19:35;;;;;;;6.78;4.10;;;;;;;1.68;75.40;98985.84;5071590;28;20059;-71
2023/04/03 02:22:04;;;;;;;7.88;4.28;;;;;;;1.64;75.65;98979.25;5071114;28;20046;-71
2023/04/03 02:24:30;;;;;;;8.10;4.37;;;;;;;1.67;75.21;98983.38;5071020;28;20837;-71
2023/04/03 02:26:56;;;;;;;7.95;4.28;;;;;;;1.66;74.87;98982.56;5071671;28;20357;-71
2023/04/03 02:29:21;;;;;;;6.20;3.22;;;;;;;1.69;75.56;98987.50;5071044;28;20067;-70
2023/04/03 02:31:47;;;;;;;5.18;3.58;;;;;;;1.66;74.96;98987.13;5071069;28;20028;-71
2023/04/03 02:34:12;;;;;;;6.20;3.75;;;;;;;1.70;74.95;98991.88;5070898;28;20036;-70
2023/04/03 02:36:38;;;;;;;6.80;3.83;;;;;;;1.73;74.72;98987.88;5056533;28;20036;-71
2023/04/03 02:39:04;;;;;;;9.02;4.75;;;;;;;1.73;75.07;98982.47;5050912;28;20099;-71
2023/04/03 02:41:34;;;;;;;9.90;3.60;;;;;;;1.69;74.59;98970.44;5050877;28;20033;-71
2023/04/03 02:44:03;;;;;;;7.65;3.65;;;;;;;1.64;74.64;98985.47;5081608;28;20546;-70
2023/04/03 02:46:28;;;;;;;46.03;17.90;;;;;;;1.61;74.64;98985.94;5091176;28;20046;-70
2023/04/03 02:48:54;;;;;;;17.05;6.85;;;;;;;1.61;73.93;98990.50;5090659;28;20539;-70
2023/04/03 02:51:20;;;;;;;9.65;4.68;;;;;;;1.64;74.08;98995.47;5091284;28;20036;-71
2023/04/03 02:53:45;;;;;;;7.35;4.45;;;;;;;1.61;74.34;98994.06;5090752;28;20028;-71
2023/04/03 02:56:10;;;;;;;5.85;3.25;;;;;;;1.60;73.24;98996.97;5090894;28;20020;-71
2023/04/03 02:58:36;;;;;;;6.55;3.55;;;;;;;1.49;72.69;98993.94;5090696;28;20365;-71
2023/04/03 03:01:02;;;;;;;5.95;3.85;;;;;;;1.40;72.76;98999.88;5090310;28;20020;-71
2023/04/03 03:03:27;;;;;;;7.65;4.30;;;;;;;1.31;73.61;99000.16;5090162;28;20027;-71
2023/04/03 03:06:06;;;;;;;6.55;3.88;;;;;;;1.26;73.16;99010.78;5091087;28;20031;-71
2023/04/03 03:08:31;;;;;;;7.03;3.25;;;;;;;1.23;73.61;99008.53;5087036;28;20043;-71
2023/04/03 03:10:57;;;;;;;8.90;3.83;;;;;;;1.16;73.23;99003.19;5090844;28;20024;-71
2023/04/03 03:13:22;;;;;;;8.18;3.50;;;;;;;1.08;73.57;99003.47;5090779;28;20685;-71
2023/04/03 03:15:48;;;;;;;8.15;3.55;;;;;;;1.04;72.37;99002.25;5090974;28;20107;-70
2023/04/03 03:18:13;;;;;;;7.60;4.18;;;;;;;0.90;73.08;99012.34;5090913;28;20392;-71
2023/04/03 03:20:39;;;;;;;6.45;3.63;;;;;;;0.84;72.72;99005.94;5090688;28;20097;-70
2023/04/03 03:23:04;;;;;;;6.85;3.45;;;;;;;0.75;73.03;99015.34;5090354;28;20046;-70
2023/04/03 03:25:29;;;;;;;7.72;3.75;;;;;;;0.68;73.06;99025.38;5090537;28;20032;-70
2023/04/03 03:27:55;;;;;;;6.95;3.20;;;;;;;0.63;73.14;99015.22;5090512;28;20024;-71
2023/04/03 03:30:20;;;;;;;16.40;5.75;;;;;;;0.56;72.83;99019.84;5090324;28;20099;-71
2023/04/03 03:32:46;;;;;;;21.00;7.85;;;;;;;0.48;73.12;99020.94;5089872;28;20012;-69
2023/04/03 03:35:11;;;;;;;16.20;5.95;;;;;;;0.43;73.47;99020.75;5089964;28;20021;-70
2023/04/03 03:37:36;;;;;;;16.02;5.10;;;;;;;0.41;73.24;99025.53;5090571;28;20050;-70
2023/04/03 03:40:02;;;;;;;10.25;4.00;;;;;;;0.36;73.37;99022.66;5090420;28;20059;-70
2023/04/03 03:42:27;;;;;;;11.50;5.10;;;;;;;0.29;72.71;99037.00;5090083;28;20186;-71
2023/04/03 03:44:53;;;;;;;10.57;4.57;;;;;;;0.28;72.64;99043.44;5090050;28;20621;-71
2023/04/03 03:47:18;;;;;;;7.13;3.63;;;;;;;0.21;72.98;99037.22;5090338;28;20024;-70
2023/04/03 03:49:44;;;;;;;9.55;4.30;;;;;;;0.16;72.78;99034.38;5090076;28;20417;-71
2023/04/03 03:52:12;;;;;;;7.60;3.80;;;;;;;0.11;72.74;99037.69;5089861;28;20039;-70
2023/04/03 03:54:38;;;;;;;8.50;3.60;;;;;;;0.06;72.73;99032.09;5089838;28;20028;-70
2023/04/03 03:57:03;;;;;;;10.98;5.25;;;;;;;0.03;72.92;99032.53;5090074;28;20106;-71
2023/04/03 03:59:28;;;;;;;11.50;5.18;;;;;;;0.02;73.15;99036.28;5090357;28;20035;-71
2023/04/03 04:01:54;;;;;;;11.35;5.07;;;;;;;-0.01;72.68;99039.41;5090272;28;20052;-71
2023/04/03 04:04:20;;;;;;;11.82;4.88;;;;;;;-0.06;72.71;99031.13;5090036;28;20499;-71
2023/04/03 04:06:45;;;;;;;12.57;5.50;;;;;;;-0.14;72.45;99040.25;5090515;28;20028;-71
2023/04/03 04:09:11;;;;;;;13.38;6.13;;;;;;;-0.18;73.01;99034.47;5090325;28;20061;-71
2023/04/03 04:11:36;;;;;;;13.73;6.50;;;;;;;-0.23;72.60;99030.78;5092725;28;20586;-71
2023/04/03 04:14:01;;;;;;;9.50;5.00;;;;;;;-0.27;72.66;99041.13;5094217;28;20024;-71
2023/04/03 04:16:27;;;;;;;8.32;4.00;;;;;;;-0.27;72.65;99048.41;5094318;28;20069;-71
2023/04/03 04:18:52;;;;;;;8.70;3.75;;;;;;;-0.26;72.95;99039.28;5094023;28;20479;-71
2023/04/03 04:21:18;;;;;;;5.32;3.63;;;;;;;-0.31;72.55;99043.44;5094150;28;20024;-71
2023/04/03 04:23:43;;;;;;;7.50;3.75;;;;;;;-0.31;73.03;99051.53;5093963;28;20120;-71
2023/04/03 04:26:09;;;;;;;17.40;6.65;;;;;;;-0.31;73.24;99056.06;5094154;28;20028;-71
2023/04/03 04:28:34;;;;;;;10.85;4.65;;;;;;;-0.33;72.60;99048.22;5094143;28;20037;-71
2023/04/03 04:31:00;;;;;;;9.68;4.03;;;;;;;-0.35;72.50;99058.38;5094004;28;20031;-71
2023/04/03 04:33:26;;;;;;;8.63;3.20;;;;;;;-0.42;72.55;99052.16;5093775;28;20024;-71
2023/04/03 04:35:51;;;;;;;8.95;3.03;;;;;;;-0.48;72.91;99061.06;5094047;28;20016;-71
2023/04/03 04:38:17;;;;;;;18.00;6.50;;;;;;;-0.48;72.72;99067.31;5093946;28;20027;-71
2023/04/03 04:40:42;;;;;;;9.10;3.90;;;;;;;-0.47;72.77;99068.13;5075643;28;20107;-71
2023/04/03 04:43:08;;;;;;;16.30;6.50;;;;;;;-0.55;72.92;99076.41;5093756;28;20044;-71
2023/04/03 04:45:33;;;;;;;11.10;4.18;;;;;;;-0.57;72.71;99079.34;5093788;28;20024;-71
2023/04/03 04:47:58;;;;;;;11.07;4.50;;;;;;;-0.55;73.12;99081.81;5094408;28;20548;-71
2023/04/03 04:50:24;;;;;;;7.55;3.35;;;;;;;-0.54;72.57;99084.31;5093832;28;20480;-70
2023/04/03 04:52:49;;;;;;;6.65;3.13;;;;;;;-0.52;72.77;99086.78;5093327;28;20036;-71
2023/04/03 04:55:15;;;;;;;10.80;4.30;;;;;;;-0.53;72.98;99085.97;5093524;28;20022;-70
2023/04/03 04:57:40;;;;;;;10.18;4.53;;;;;;;-0.54;72.64;99084.31;5093435;28;20464;-71
2023/04/03 05:00:06;;;;;;;11.93;4.60;;;;;;;-0.53;72.98;99087.81;5093212;28;20055;-71
2023/04/03 05:02:31;;;;;;;8.75;4.45;;;;;;;-0.52;72.58;99084.94;5092641;28;20023;-71
2023/04/03 05:04:58;;;;;;;12.57;4.97;;;;;;;-0.52;72.55;99086.78;5093101;28;20432;-71
2023/04/03 05:07:24;;;;;;;12.93;5.20;;;;;;;-0.52;72.66;99089.47;5092913;28;20102;-71
2023/04/03 05:09:49;;;;;;;11.70;5.70;;;;;;;-0.52;72.79;99089.47;5093122;28;20111;-71
2023/04/03 05:12:15;;;;;;;10.93;4.82;;;;;;;-0.53;72.89;99091.34;5092896;28;20032;-71
2023/04/03 05:14:40;;;;;;;9.15;4.65;;;;;;;-0.52;72.92;99092.16;5092338;28;20036;-71
2023/04/03 05:17:05;;;;;;;14.70;5.45;;;;;;;-0.50;72.54;99099.03;5093065;28;20054;-71
2023/04/03 05:19:31;;;;;;;10.40;4.60;;;;;;;-0.52;72.38;99108.34;5092654;28;20028;-70
2023/04/03 05:21:56;;;;;;;14.80;5.95;;;;;;;-0.55;72.33;99114.13;5074009;28;20032;-71
2023/04/03 05:24:22;;;;;;;15.80;5.22;;;;;;;-0.56;72.55;99104.41;5092015;28;20520;-71
2023/04/03 05:26:47;;;;;;;10.93;3.85;;;;;;;-0.58;72.18;99114.53;5092690;28;20028;-70
2023/04/03 05:29:12;;;;;;;11.30;3.92;;;;;;;-0.63;72.50;99116.03;5092499;28;20115;-70
2023/04/03 05:31:38;;;;;;;13.13;4.80;;;;;;;-0.61;72.38;99124.69;5057716;28;20396;-71
2023/04/03 05:34:03;;;;;;;7.80;4.03;;;;;;;-0.58;72.20;99117.25;5074076;28;20024;-71
2023/04/03 05:36:28;;;;;;;10.80;4.07;;;;;;;-0.62;71.87;99116.84;5092783;28;20039;-70
2023/04/03 05:38:56;;;;;;;18.10;5.95;;;;;;;-0.65;72.58;99112.72;5092332;28;20607;-70
2023/04/03 05:41:22;;;;;;;8.95;3.70;;;;;;;-0.60;72.44;99126.34;5092217;28;20035;-71
2023/04/03 05:43:47;;;;;;;8.45;3.85;;;;;;;-0.62;72.39;99125.75;5091781;28;20511;-71
2023/04/03 05:46:19;;;;;;;11.82;5.47;;;;;;;-0.63;72.27;99132.19;5092217;28;20040;-70
2023/04/03 05:48:44;;;;;;;6.90;3.60;;;;;;;-0.65;71.94;99128.88;5092047;28;20151;-71
2023/04/03 05:51:23;;;;;;;8.40;4.05;;;;;;;-0.61;72.00;99126.59;5092167;28;20119;-70
2023/04/03 05:53:54;;;;;;;9.63;4.22;;;;;;;-0.57;72.31;99132.38;5088880;28;20024;-71
2023/04/03 05:56:20;;;;;;;9.50;3.53;;;;;;;-0.51;72.33;99134.25;5092181;28;20040;-71
2023/04/03 05:58:46;;;;;;;14.93;6.65;;;;;;;-0.44;72.30;99135.06;5092112;28;20490;-70
2023/04/03 06:01:11;;;;;;;11.57;4.90;;;;;;;-0.35;72.06;99135.69;5091553;28;20110;-71
2023/04/03 06:03:36;;;;;;;9.55;4.38;;;;;;;-0.33;72.24;99131.75;5091401;28;20028;-71
2023/04/03 06:06:04;;;;;;;10.45;4.03;;;;;;;-0.28;71.37;99138.41;5091667;28;20396;-71
2023/04/03 06:08:29;;;;;;;9.73;4.68;;;;;;;-0.29;71.38;99137.56;5091731;28;20032;-71
2023/04/03 06:10:56;;;;;;;11.73;5.55;;;;;;;-0.27;71.47;99142.75;5091691;28;20552;-71
2023/04/03 06:13:21;;;;;;;12.55;5.28;;;;;;;-0.26;71.18;99147.13;5091177;28;20028;-71
2023/04/03 06:15:47;;;;;;;7.78;4.20;;;;;;;-0.22;71.30;99141.09;5091986;28;20106;-71
2023/04/03 06:18:12;;;;;;;7.45;4.18;;;;;;;-0.13;71.28;99144.38;5091677;28;20024;-71
2023/04/03 06:20:38;;;;;;;8.63;4.38;;;;;;;-0.05;71.49;99148.75;5091315;28;20032;-71
2023/04/03 06:23:03;;;;;;;9.20;4.07;;;;;;;0.03;70.05;99153.09;5091443;28;20039;-71
2023/04/03 06:25:28;;;;;;;7.60;3.70;;;;;;;-0.04;70.44;99145.00;5091139;28;20042;-71
2023/04/03 06:27:55;;;;;;;9.10;3.90;;;;;;;0.04;70.18;99150.16;5091298;28;20024;-70
2023/04/03 06:30:21;;;;;;;6.85;3.55;;;;;;;0.06;69.51;99158.06;5073254;28;20476;-71
2023/04/03 06:32:46;;;;;;;7.40;3.28;;;;;;;0.06;69.93;99158.06;5091340;28;20035;-71
2023/04/03 06:35:12;;;;;;;10.30;5.00;;;;;;;0.09;70.51;99161.16;5090151;28;20035;-71
2023/04/03 06:37:37;;;;;;;7.85;3.65;;;;;;;0.17;69.43;99161.97;5091069;28;20036;-71
2023/04/03 06:40:04;;;;;;;8.40;4.10;;;;;;;0.13;69.41;99157.00;5091236;28;20032;-71
2023/04/03 06:42:30;;;;;;;7.80;3.83;;;;;;;0.11;69.61;99163.66;5090909;28;20052;-71
2023/04/03 06:44:55;;;;;;;7.20;3.47;;;;;;;0.18;69.86;99161.78;5090992;28;20039;-71
2023/04/03 06:47:21;;;;;;;6.95;3.17;;;;;;;0.24;70.11;99163.59;5091209;28;20511;-71
2023/04/03 06:49:46;;;;;;;4.43;2.78;;;;;;;0.31;70.01;99165.47;5091088;28;20036;-71
2023/04/03 06:52:12;;;;;;;5.97;2.85;;;;;;;0.30;69.77;99172.75;5090577;28;20062;-71
2023/04/03 06:54:38;;;;;;;6.43;3.42;;;;;;;0.35;68.97;99177.50;5091008;28;20024;-71
2023/04/03 06:57:04;;;;;;;6.35;2.90;;;;;;;0.37;69.83;99170.03;5091037;28;20028;-70
2023/04/03 06:59:29;;;;;;;8.18;3.75;;;;;;;0.42;69.01;99172.91;5090906;28;20032;-71
2023/04/03 07:01:55;;;;;;;7.53;3.25;;;;;;;0.50;69.70;99177.25;5087468;28;20028;-70
2023/04/03 07:04:21;;;;;;;7.63;3.60;;;;;;;0.62;70.34;99180.94;5090947;28;20035;-71
2023/04/03 07:06:47;;;;;;;5.30;2.90;;;;;;;0.73;69.67;99174.03;5091217;28;20066;-71
2023/04/03 07:09:14;;;;;;;8.68;3.83;;;;;;;0.81;69.16;99184.59;5091353;28;20050;-71
2023/04/03 07:11:39;;;;;;;6.65;3.10;;;;;;;0.83;68.44;99177.13;5088004;28;20062;-71
2023/04/03 07:14:07;;;;;;;6.65;2.85;;;;;;;0.86;69.27;99189.34;5091233;28;20024;-71
2023/04/03 07:16:33;;;;;;;6.18;2.80;;;;;;;0.92;68.57;99180.41;5091718;28;20028;-70
2023/04/03 07:18:58;;;;;;;6.95;3.25;;;;;;;1.01;68.71;99195.31;5091519;28;20069;-70
2023/04/03 07:21:24;;;;;;;6.80;3.00;;;;;;;1.12;67.38;99185.69;5091131;28;20028;-71
2023/04/03 07:23:50;;;;;;;4.60;2.90;;;;;;;1.14;66.80;99188.19;5090654;28;20039;-70
2023/04/03 07:26:15;;;;;;;6.00;3.05;;;;;;;1.21;67.89;99191.69;5072216;28;20035;-70
2023/04/03 07:28:41;;;;;;;7.00;3.47;;;;;;;1.36;67.39;99201.38;5091011;28;20036;-70
2023/04/03 07:31:11;;;;;;;5.10;3.00;;;;;;;1.51;65.99;99201.91;5090974;28;20120;-70
2023/04/03 07:33:37;;;;;;;6.65;3.15;;;;;;;1.55;65.68;99191.47;5086588;28;20579;-70
2023/04/03 07:36:03;;;;;;;7.93;4.20;;;;;;;1.70;66.75;99201.97;5072342;28;20107;-71
2023/04/03 07:38:29;;;;;;;6.53;2.92;;;;;;;1.82;64.67;99204.81;5090168;28;20118;-71
2023/04/03 07:40:54;;;;;;;4.88;3.10;;;;;;;1.84;65.92;99202.69;5090663;28;20061;-71
2023/04/03 07:43:21;;;;;;;4.40;2.80;;;;;;;1.93;65.18;99207.63;5080791;28;20127;-72
2023/04/03 07:45:50;;;;;;;6.50;2.80;;;;;;;1.99;64.28;99195.06;5070425;28;20048;-72
2023/04/03 07:48:18;;;;;;;8.18;3.67;;;;;;;2.02;64.47;99191.91;5053235;28;20131;-72
2023/04/03 07:50:43;;;;;;;6.07;3.00;;;;;;;2.04;62.87;99197.09;5068035;28;20534;-72
2023/04/03 07:53:09;;;;;;;5.68;3.30;;;;;;;2.08;64.15;99203.72;5065821;28;20017;-72
2023/04/03 07:55:42;;;;;;;7.13;3.35;;;;;;;2.25;64.09;99206.69;5066764;28;20024;-71
2023/04/03 07:58:09;;;;;;;5.95;2.97;;;;;;;2.39;63.46;99210.09;5061658;28;20032;-71
2023/04/03 08:00:35;;;;;;;4.93;2.60;;;;;;;2.44;64.40;99201.31;5055561;28;20494;-72
2023/04/03 08:03:01;;;;;;;8.10;4.68;;;;;;;2.48;64.39;99203.31;5060049;28;20039;-70
2023/04/03 08:05:26;;;;;;;6.35;3.22;;;;;;;2.55;62.77;99205.13;5049035;28;20095;-72
2023/04/03 08:07:52;;;;;;;5.75;2.40;;;;;;;2.50;62.39;99208.53;5063272;28;20465;-71
2023/04/03 08:10:17;;;;;;;7.60;3.70;;;;;;;2.42;61.92;99206.97;5065440;28;20025;-71
2023/04/03 08:12:46;;;;;;;6.15;2.80;;;;;;;2.31;62.81;99202.28;5056333;28;20029;-72
2023/04/03 08:15:11;;;;;;;5.25;2.30;;;;;;;2.25;62.44;99195.84;5054382;28;20017;-73
2023/04/03 08:17:36;;;;;;;7.88;2.70;;;;;;;2.20;62.28;99206.56;5063435;28;20075;-72
2023/04/03 08:20:06;;;;;;;5.30;2.70;;;;;;;2.17;62.54;99196.16;5063263;28;20491;-71
2023/04/03 08:22:32;;;;;;;6.60;3.72;;;;;;;2.12;61.92;99206.81;5059638;28;20067;-72
2023/04/03 08:24:57;;;;;;;6.90;3.20;;;;;;;2.08;61.16;99212.69;5060692;28;20032;-71
2023/04/03 08:27:22;;;;;;;5.28;2.97;;;;;;;2.05;60.89;99210.41;5049316;28;20065;-73
2023/04/03 08:29:48;;;;;;;5.60;2.20;;;;;;;1.99;62.11;99205.06;5060908;28;20098;-71
2023/04/03 08:32:13;;;;;;;5.28;2.50;;;;;;;2.00;59.94;99204.84;5050150;28;20480;-75
2023/04/03 08:34:39;;;;;;;6.13;3.80;;;;;;;2.03;61.43;99204.41;5061637;28;21288;-71
2023/04/03 08:37:05;;;;;;;4.22;2.10;;;;;;;2.09;61.67;99208.09;5058504;28;20023;-71
2023/04/03 08:39:31;;;;;;;5.38;2.65;;;;;;;2.20;61.42;99209.25;5059677;28;20044;-70
2023/04/03 08:42:00;;;;;;;3.90;1.90;;;;;;;2.27;60.58;99220.81;5053253;28;20040;-71
2023/04/03 08:44:47;;;;;;;4.50;1.75;;;;;;;2.41;60.77;99194.47;5057287;28;20139;-71
2023/04/03 08:47:35;;;;;;;2.80;1.50;;;;;;;2.56;60.39;99187.84;5051399;28;20021;-70
2023/04/03 08:50:11;;;;;;;6.70;2.20;;;;;;;2.75;59.15;99188.66;5050279;28;20449;-72
2023/04/03 08:52:52;;;;;;;6.43;2.78;;;;;;;2.96;60.04;99185.50;5050109;28;20021;-72
2023/04/03 08:55:42;;;;;;;6.32;2.58;;;;;;;3.22;59.86;99188.88;5059240;28;20028;-73
2023/04/03 08:58:41;;;;;;;4.45;2.20;;;;;;;3.53;60.09;99194.31;5066057;28;20028;-71
2023/04/03 09:01:26;;;;;;;6.75;2.33;;;;;;;3.72;54.62;99204.00;5067920;28;20433;-72
2023/04/03 09:03:51;;;;;;;4.60;2.30;;;;;;;3.71;56.39;99198.81;5067456;28;20025;-72
2023/04/03 09:06:21;;;;;;;2.20;1.60;;;;;;;3.65;50.51;99191.59;5071661;28;20103;-73
2023/04/03 09:09:00;;;;;;;3.50;1.70;;;;;;;3.49;51.62;99193.09;5051113;28;20036;-72
2023/04/03 09:11:31;;;;;;;3.63;1.80;;;;;;;3.48;51.39;99202.28;5067276;28;20582;-73
2023/04/03 09:14:44;;;;;;;2.25;2.00;;;;;;;3.49;49.36;99196.63;5057282;28;20049;-73
2023/04/03 09:17:31;;;;;;;2.17;1.30;;;;;;;3.50;51.46;99206.41;5029560;28;20033;-74
2023/04/03 09:20:10;;;;;;;3.55;1.50;;;;;;;3.61;49.49;99195.84;5050633;28;20049;-74
2023/04/03 09:22:41;;;;;;;4.95;2.33;;;;;;;3.73;51.35;99186.66;5051823;28;20052;-72
2023/04/03 09:25:14;;;;;;;3.72;1.73;;;;;;;3.81;48.83;99187.38;5051646;28;20024;-74
2023/04/03 09:27:40;;;;;;;3.78;1.60;;;;;;;3.87;49.54;99184.56;5069027;28;20039;-74
2023/04/03 09:30:06;;;;;;;2.05;1.10;;;;;;;3.91;46.46;99203.09;5072890;28;20036;-74
2023/04/03 09:32:36;;;;;;;1.77;1.35;;;;;;;3.73;43.58;99205.66;5069454;28;20025;-74
2023/04/03 09:35:22;;;;;;;4.10;1.45;;;;;;;3.60;47.81;99207.75;5053135;28;20534;-74
2023/04/03 09:38:13;;;;;;;2.60;1.25;;;;;;;3.62;50.07;99206.47;5052719;28;20021;-73
2023/04/03 09:40:43;;;;;;;2.35;1.30;;;;;;;3.79;49.30;99208.50;5040411;28;20036;-72
2023/04/03 09:43:27;;;;;;;4.35;2.10;;;;;;;3.83;49.91;99212.41;5072874;28;20044;-75
2023/04/03 09:45:54;;;;;;;3.10;1.75;;;;;;;3.95;50.43;99215.13;5072652;28;20119;-74
2023/04/03 09:48:27;;;;;;;3.58;2.25;;;;;;;4.10;51.52;99211.94;5072504;28;20385;-73
2023/04/03 09:50:55;;;;;;;2.95;1.73;;;;;;;4.25;50.43;99212.31;5072041;28;20070;-73
2023/04/03 09:53:35;;;;;;;2.45;1.30;;;;;;;4.20;47.99;99214.91;5073017;28;20024;-73
2023/04/03 09:56:03;;;;;;;4.70;2.50;;;;;;;4.04;47.52;99221.88;5072534;28;20086;-73
2023/04/03 09:58:37;;;;;;;6.70;2.58;;;;;;;3.92;48.63;99232.72;5072529;28;20024;-73
2023/04/03 10:01:03;;;;;;;5.45;1.98;;;;;;;3.85;49.36;99230.13;5072397;28;20477;-74
2023/04/03 10:03:29;;;;;;;6.30;2.50;;;;;;;3.83;49.83;99226.81;5072235;28;20082;-74
2023/04/03 10:05:55;;;;;;;3.72;2.00;;;;;;;3.92;51.14;99219.16;5072286;28;20033;-74
2023/04/03 10:08:27;;;;;;;4.20;2.22;;;;;;;3.98;50.23;99220.94;5072012;28;20032;-73
2023/04/03 10:11:10;;;;;;;4.90;2.58;;;;;;;4.08;50.68;99217.63;5071918;28;20020;-74
2023/04/03 10:13:36;;;;;;;4.25;1.80;;;;;;;4.20;50.63;99222.25;5071916;28;20028;-73
2023/04/03 10:16:12;;;;;;;10.93;3.50;;;;;;;4.31;50.69;99224.97;5072206;28;20094;-74
2023/04/03 10:19:07;;;;;;;5.70;2.40;;;;;;;4.39;50.33;99206.66;5072222;28;20078;-74
2023/04/03 10:21:55;;;;;;;4.55;2.10;;;;;;;4.49;50.67;99211.50;5053894;28;20063;-73
2023/04/03 10:24:26;;;;;;;3.10;1.60;;;;;;;4.59;51.31;99219.88;5071918;28;20029;-74
2023/04/03 10:27:24;;;;;;;3.45;1.58;;;;;;;4.64;47.92;99219.16;5072259;28;20043;-74
2023/04/03 10:29:49;;;;;;;5.05;2.00;;;;;;;4.54;46.16;99217.03;5053352;28;20138;-73
2023/04/03 10:32:49;;;;;;;3.92;2.00;;;;;;;4.42;47.72;99209.72;5052038;28;20417;-74
2023/04/03 10:35:56;;;;;;;5.43;2.42;;;;;;;4.28;46.76;99232.78;5068581;28;20117;-73
2023/04/03 10:38:51;;;;;;;2.53;1.70;;;;;;;4.26;47.71;99219.41;5056937;28;20064;-73
2023/04/03 10:41:34;;;;;;;4.10;1.80;;;;;;;4.42;47.13;99222.50;5062126;28;20068;-73
2023/04/03 10:44:32;;;;;;;3.50;1.85;;;;;;;4.62;48.57;99220.22;5071864;28;20045;-73
2023/04/03 10:47:03;;;;;;;3.42;1.70;;;;;;;4.76;46.03;99207.19;5071321;28;20556;-73
2023/04/03 10:49:42;;;;;;;5.40;2.50;;;;;;;4.91;46.21;99216.75;5071428;28;20036;-74
2023/04/03 10:52:23;;;;;;;2.42;1.80;;;;;;;5.07;47.30;99218.72;5071850;28;20025;-72
2023/04/03 10:55:10;;;;;;;7.82;3.65;;;;;;;5.14;42.67;99223.16;5071236;28;20032;-72
2023/04/03 10:57:37;;;;;;;5.68;3.03;;;;;;;4.97;44.36;99210.34;5071636;28;20028;-71
2023/04/03 11:00:10;;;;;;;4.20;2.10;;;;;;;4.92;44.31;99218.38;5071255;28;20029;-72
2023/04/03 11:02:45;;;;;;;2.45;1.55;;;;;;;4.89;45.14;99210.72;5071700;28;20039;-72
2023/04/03 11:05:36;;;;;;;4.35;1.80;;;;;;;4.97;45.08;99210.34;5071624;28;20071;-72
2023/04/03 11:08:42;;;;;;;5.88;2.10;;;;;;;4.96;45.17;99205.13;5071131;28;20043;-71
2023/04/03 11:11:20;;;;;;;6.28;2.40;;;;;;;4.86;46.11;99211.19;4970139;28;20035;-71
2023/04/03 11:13:54;;;;;;;4.45;2.10;;;;;;;4.83;46.02;99212.50;5060096;28;20090;-71
2023/04/03 11:16:24;;;;;;;6.00;2.25;;;;;;;4.75;45.15;99213.69;5050099;28;20029;-71
2023/04/03 11:18:59;;;;;;;6.72;3.70;;;;;;;4.81;45.10;99202.94;5051522;28;20027;-71
2023/04/03 11:21:50;;;;;;;5.80;3.22;;;;;;;4.95;44.50;99203.47;5050740;28;20029;-71
2023/04/03 11:24:29;;;;;;;4.32;2.33;;;;;;;5.02;44.23;99209.59;5068739;28;20108;-70
2023/04/03 11:26:56;;;;;;;5.50;2.22;;;;;;;4.97;43.88;99207.63;5071419;28;20020;-70
2023/04/03 11:29:34;;;;;;;7.10;2.58;;;;;;;4.92;42.07;99221.13;5066764;28;20098;-71
2023/04/03 11:32:25;;;;;;;4.35;2.17;;;;;;;4.83;44.54;99209.78;5049816;28;20574;-71
2023/04/03 11:34:58;;;;;;;6.95;3.47;;;;;;;4.97;45.19;99194.03;5067396;28;20485;-71
2023/04/03 11:37:40;;;;;;;6.07;2.70;;;;;;;5.26;45.30;99191.31;5051141;28;20021;-70
2023/04/03 11:40:29;;;;;;;5.40;2.47;;;;;;;5.47;42.91;99205.31;5051045;28;20033;-70
2023/04/03 11:43:05;;;;;;;4.47;2.17;;;;;;;5.53;43.80;99198.06;5068093;28;20037;-70
2023/04/03 11:46:00;;;;;;;3.88;2.10;;;;;;;5.46;43.10;99201.75;5061210;28;20594;-71
2023/04/03 11:48:29;;;;;;;4.35;2.20;;;;;;;5.33;42.37;99211.03;5015074;28;20064;-70
2023/04/03 11:51:02;;;;;;;4.10;1.90;;;;;;;5.28;43.56;99205.50;5050506;28;20064;-70